Poteau, OK

3:36 AM CDT on July 27, 2017 (GMT -0500)
Kerr

Weather History for KRKR - October, 2013

Change the Weather History Date:

Thursday, October 31, 2013

  Actual Average (KFSM) Record (KFSM)
Temperature  
Mean Temperature 66 °F -  
Max Temperature 78 °F 66 °F 89 °F (2016)
Min Temperature 53 °F 47 °F 24 °F (1993)
Growing Degree Days 16 (Base 50)    
Moisture  
Dew Point 60 °F    
Average Humidity 83    
Maximum Humidity 100    
Minimum Humidity 41    
Precipitation  
Precipitation 0.00 in - - ()
Sea Level Pressure  
Sea Level Pressure 29.70 in    
Wind  
Wind Speed 7 mph (SW)    
Max Wind Speed 21 mph    
Max Gust Speed 33 mph    
Visibility 10 miles    
Events Rain    
Averages and records for this station are not official NWS values.
T = Trace of Precipitation, MM = Missing Value Source: NWS Daily Summary

Daily Weather History Graph

Daily Weather History Graph

Search for Another Location

Airport or City:

Trip Planner

Search our weather history database for the weather conditions in past years. The results will help you decide how hot, cold, wet, or windy it might be!

Date:

Astronomy

Oct. 31, 2013 Rise Set
Actual Time 7:38 AM CDT 6:24 PM CDT
Civil Twilight 7:12 AM CDT 6:50 PM CDT
Nautical Twilight 6:42 AM CDT 7:20 PM CDT
Astronomical Twilight 6:13 AM CDT 7:50 PM CDT
Moon 4:35 AM CDT (10/31) 4:38 PM CDT (10/31)
Length of Visible Light 11h 38m
Length of Day
10h 46m
Waning Crescent, 10% of the Moon is Illuminated
Oct 31
Waning Crescent
Nov 3
New
Nov 9
First Quarter
Nov 17
Full
Nov 25
Last Quarter

Hourly Weather History & Observations

Time (CDT) Temp. Dew Point Humidity Pressure Visibility Wind Dir Wind Speed Gust Speed Precip Events Conditions
12:15 AM 64.4 °F 64.4 °F 100% 29.83 in 10.0 mi South 9.2 mph - N/A Rain Light Rain
12:35 AM 66.2 °F 64.4 °F 94% 29.80 in 10.0 mi SSW 3.5 mph - N/A Rain Light Rain
12:55 AM 66.2 °F 64.4 °F 94% 29.76 in 10.0 mi Calm Calm - N/A Rain Light Rain
1:15 AM 66.2 °F 64.4 °F 94% 29.79 in 10.0 mi SSW 5.8 mph - N/A   Unknown
1:35 AM 68.0 °F 66.2 °F 94% 29.77 in 10.0 mi SSW 8.1 mph 16.1 mph N/A Rain Light Rain
1:55 AM 68.0 °F 66.2 °F 94% 29.76 in 10.0 mi South 4.6 mph - N/A Rain Light Rain
2:15 AM 68.0 °F 64.4 °F 88% 29.75 in 10.0 mi SSW 8.1 mph - N/A   Unknown
2:35 AM 68.0 °F 66.2 °F 94% 29.75 in 10.0 mi South 8.1 mph - N/A   Unknown
2:55 AM 68.0 °F 68.0 °F 100% 29.74 in 10.0 mi South 4.6 mph - N/A Rain Light Rain
3:15 AM 68.0 °F 68.0 °F 100% 29.73 in 10.0 mi South 4.6 mph - N/A   Unknown
3:35 AM 68.0 °F 68.0 °F 100% 29.71 in 10.0 mi SSW 5.8 mph - N/A   Unknown
3:55 AM 68.0 °F 66.2 °F 94% 29.71 in 10.0 mi SSW 6.9 mph - N/A   Unknown
4:15 AM 68.0 °F 68.0 °F 100% 29.70 in 10.0 mi Calm Calm - N/A Rain Light Rain
4:35 AM 66.2 °F 66.2 °F 100% 29.68 in 10.0 mi Calm Calm - N/A   Unknown
4:55 AM 66.2 °F 66.2 °F 100% 29.68 in 10.0 mi Calm Calm - N/A   Unknown
5:15 AM 66.2 °F 66.2 °F 100% 29.65 in 10.0 mi Calm Calm - N/A   Unknown
5:35 AM 66.2 °F 66.2 °F 100% 29.65 in 10.0 mi SW 3.5 mph - N/A   Unknown
5:55 AM 68.0 °F 68.0 °F 100% 29.65 in 10.0 mi SSW 5.8 mph - N/A   Unknown
6:15 AM 68.0 °F 66.2 °F 94% 29.65 in 10.0 mi SSW 5.8 mph - N/A   Unknown
6:35 AM 66.2 °F 66.2 °F 100% 29.64 in 10.0 mi SW 5.8 mph - N/A   Unknown
6:55 AM 68.0 °F 68.0 °F 100% 29.64 in 10.0 mi SSW 5.8 mph - N/A   Unknown
7:15 AM 68.0 °F 68.0 °F 100% 29.65 in 10.0 mi SW 3.5 mph - N/A   Unknown
7:35 AM 68.0 °F 68.0 °F 100% 29.64 in 10.0 mi SSW 6.9 mph - N/A   Unknown
7:55 AM 69.8 °F 68.0 °F 94% 29.65 in 10.0 mi SSW 8.1 mph - N/A   Unknown
8:15 AM 68.0 °F 68.0 °F 100% 29.65 in 10.0 mi SSW 6.9 mph - N/A   Unknown
8:35 AM 68.0 °F 68.0 °F 100% 29.63 in 10.0 mi Calm Calm - N/A   Unknown
8:55 AM 68.0 °F 66.2 °F 94% 29.64 in 10.0 mi Calm Calm - N/A   Unknown
9:15 AM 68.0 °F 68.0 °F 100% 29.63 in 10.0 mi SSW 3.5 mph - N/A   Unknown
9:35 AM 68.0 °F 68.0 °F 100% 29.64 in 10.0 mi SSW 3.5 mph - N/A   Unknown
9:55 AM 71.6 °F 69.8 °F 94% 29.65 in 10.0 mi SSW 6.9 mph - N/A   Unknown
10:15 AM 71.6 °F 69.8 °F 94% 29.64 in 10.0 mi SSW 8.1 mph - N/A   Unknown
10:35 AM 71.6 °F 69.8 °F 94% 29.63 in 10.0 mi SW 11.5 mph 16.1 mph N/A   Unknown
10:55 AM 73.4 °F 69.8 °F 88% 29.62 in 10.0 mi SSW 9.2 mph - N/A   Unknown
11:15 AM 77.0 °F 71.6 °F 83% 29.61 in 10.0 mi SSW 13.8 mph 19.6 mph N/A   Unknown
11:35 AM 77.0 °F 69.8 °F 78% 29.60 in 10.0 mi SSW 11.5 mph 17.3 mph N/A   Unknown
11:55 AM 77.0 °F 68.0 °F 74% 29.59 in 10.0 mi SSW 15.0 mph 20.7 mph N/A   Unknown
12:15 PM 77.0 °F 64.4 °F 65% 29.59 in 10.0 mi SW 18.4 mph 21.9 mph N/A   Unknown
12:35 PM 77.0 °F 59.0 °F 54% 29.59 in 10.0 mi SW 19.6 mph 28.8 mph N/A   Unknown
12:55 PM 78.8 °F 59.0 °F 51% 29.58 in 10.0 mi SW 19.6 mph 27.6 mph N/A   Unknown
1:15 PM 78.8 °F 55.4 °F 44% 29.58 in 10.0 mi SW 15.0 mph 31.1 mph N/A   Unknown
1:35 PM 78.8 °F 53.6 °F 42% 29.58 in 10.0 mi SW 19.6 mph 31.1 mph N/A   Unknown
1:55 PM 77.0 °F 51.8 °F 41% 29.59 in 10.0 mi WSW 20.7 mph 27.6 mph N/A   Unknown
2:15 PM 77.0 °F 53.6 °F 44% 29.60 in 10.0 mi SW 16.1 mph 29.9 mph N/A   Unknown
2:35 PM 77.0 °F 53.6 °F 44% 29.61 in 10.0 mi West 18.4 mph 33.4 mph N/A   Unknown
2:55 PM 73.4 °F 51.8 °F 47% 29.62 in 10.0 mi West 18.4 mph 33.4 mph N/A   Unknown
3:15 PM 71.6 °F 48.2 °F 43% 29.64 in 10.0 mi WSW 19.6 mph 32.2 mph N/A   Unknown
3:35 PM 71.6 °F 50.0 °F 46% 29.64 in 10.0 mi West 18.4 mph 29.9 mph N/A   Unknown
3:55 PM 71.6 °F 51.8 °F 50% 29.66 in 10.0 mi West 19.6 mph 29.9 mph N/A   Unknown
4:15 PM 69.8 °F 53.6 °F 56% 29.68 in 10.0 mi West 19.6 mph 31.1 mph N/A   Unknown
4:35 PM 68.0 °F 53.6 °F 60% 29.69 in 10.0 mi West 16.1 mph 26.5 mph N/A   Unknown
4:55 PM 66.2 °F 53.6 °F 64% 29.70 in 10.0 mi West 15.0 mph 20.7 mph N/A   Unknown
5:15 PM 64.4 °F 53.6 °F 68% 29.71 in 10.0 mi West 13.8 mph 23.0 mph N/A   Unknown
5:35 PM 62.6 °F 53.6 °F 72% 29.73 in 10.0 mi West 12.7 mph 18.4 mph N/A   Unknown
5:55 PM 62.6 °F 53.6 °F 72% 29.73 in 10.0 mi West 6.9 mph - N/A   Unknown
6:15 PM 62.6 °F 53.6 °F 72% 29.75 in 10.0 mi WSW 3.5 mph - N/A   Unknown
6:35 PM 60.8 °F 51.8 °F 72% 29.76 in 10.0 mi WSW 4.6 mph - N/A   Unknown
6:55 PM 60.8 °F 51.8 °F 72% 29.77 in 10.0 mi Calm Calm - N/A   Unknown
7:15 PM 59.0 °F 51.8 °F 77% 29.78 in 10.0 mi Calm Calm - N/A   Unknown
7:35 PM 57.2 °F 51.8 °F 82% 29.78 in 10.0 mi Calm Calm - N/A   Unknown
7:55 PM 55.4 °F 51.8 °F 88% 29.78 in 10.0 mi Calm Calm - N/A   Unknown
8:15 PM 55.4 °F 53.6 °F 94% 29.79 in 10.0 mi Calm Calm - N/A   Unknown
8:35 PM 53.6 °F 51.8 °F 94% 29.79 in 10.0 mi Calm Calm - N/A   Unknown
8:55 PM 53.6 °F 51.8 °F 94% 29.80 in 10.0 mi Calm Calm - N/A   Unknown
9:15 PM 53.6 °F 51.8 °F 94% 29.81 in 10.0 mi SW 4.6 mph - N/A   Unknown
9:35 PM 53.6 °F 51.8 °F 94% 29.81 in 10.0 mi WSW 4.6 mph - N/A   Unknown
9:55 PM 55.4 °F 53.6 °F 94% 29.81 in 10.0 mi WSW 3.5 mph - N/A   Unknown
10:15 PM 53.6 °F 51.8 °F 94% 29.82 in 10.0 mi Calm Calm - N/A   Unknown
10:35 PM 55.4 °F 53.6 °F 94% 29.83 in 10.0 mi WSW 4.6 mph - N/A   Unknown
10:55 PM 55.4 °F 51.8 °F 88% 29.84 in 10.0 mi WSW 3.5 mph - N/A   Unknown
11:15 PM 55.4 °F 51.8 °F 88% 29.84 in 10.0 mi Calm Calm - N/A   Unknown
11:35 PM 55.4 °F 51.8 °F 88% 29.84 in 10.0 mi Calm Calm - N/A   Unknown
11:55 PM 55.4 °F 51.8 °F 88% 29.84 in 10.0 mi WSW 3.5 mph - N/A   Unknown